sensor_id;sensor_type;location;lat;lon;timestamp;pressure;altitude;pressure_sealevel;temperature;humidity
50292;BME280;36190;54.980;73.388;2023-12-20T00:00:37;100687.09;;;-11.12;80.02
50292;BME280;36190;54.980;73.388;2023-12-20T00:03:07;100684.50;;;-11.09;80.02
50292;BME280;36190;54.980;73.388;2023-12-20T00:05:34;100685.31;;;-11.09;80.02
50292;BME280;36190;54.980;73.388;2023-12-20T00:08:04;100680.16;;;-11.09;80.19
50292;BME280;36190;54.980;73.388;2023-12-20T00:10:32;100684.41;;;-11.05;80.32
50292;BME280;36190;54.980;73.388;2023-12-20T00:13:00;100688.63;;;-11.00;80.46
50292;BME280;36190;54.980;73.388;2023-12-20T00:15:27;100685.97;;;-10.94;80.49
50292;BME280;36190;54.980;73.388;2023-12-20T00:17:55;100683.38;;;-10.91;80.70
50292;BME280;36190;54.980;73.388;2023-12-20T00:20:24;100678.97;;;-10.86;80.80
50292;BME280;36190;54.980;73.388;2023-12-20T00:22:52;100677.19;;;-10.81;80.83
50292;BME280;36190;54.980;73.388;2023-12-20T00:25:19;100679.69;;;-10.78;80.74
50292;BME280;36190;54.980;73.388;2023-12-20T00:27:47;100676.25;;;-10.77;80.84
50292;BME280;36190;54.980;73.388;2023-12-20T00:30:15;100672.78;;;-10.75;80.81
50292;BME280;36190;54.980;73.388;2023-12-20T00:32:42;100666.81;;;-10.79;80.71
50292;BME280;36190;54.980;73.388;2023-12-20T00:35:12;100676.25;;;-10.77;80.85
50292;BME280;36190;54.980;73.388;2023-12-20T00:37:42;100675.34;;;-10.74;80.96
50292;BME280;36190;54.980;73.388;2023-12-20T00:40:10;100678.72;;;-10.70;81.08
50292;BME280;36190;54.980;73.388;2023-12-20T00:42:39;100683.88;;;-10.70;81.10
50292;BME280;36190;54.980;73.388;2023-12-20T00:45:07;100688.16;;;-10.69;81.14
50292;BME280;36190;54.980;73.388;2023-12-20T00:47:35;100688.06;;;-10.63;81.24
50292;BME280;36190;54.980;73.388;2023-12-20T00:50:03;100684.59;;;-10.62;81.36
50292;BME280;36190;54.980;73.388;2023-12-20T00:52:31;100683.72;;;-10.59;81.44
50292;BME280;36190;54.980;73.388;2023-12-20T00:55:00;100666.53;;;-10.60;81.60
50292;BME280;36190;54.980;73.388;2023-12-20T00:57:27;100673.31;;;-10.55;81.91
50292;BME280;36190;54.980;73.388;2023-12-20T00:59:55;100684.28;;;-10.43;81.93
50292;BME280;36190;54.980;73.388;2023-12-20T01:02:22;100683.31;;;-10.38;81.92
50292;BME280;36190;54.980;73.388;2023-12-20T01:04:50;100684.88;;;-10.30;81.79
50292;BME280;36190;54.980;73.388;2023-12-20T01:07:18;100673.75;;;-10.34;81.81
50292;BME280;36190;54.980;73.388;2023-12-20T01:09:45;100687.22;;;-10.16;81.67
50292;BME280;36190;54.980;73.388;2023-12-20T01:12:14;100683.69;;;-10.12;81.48
50292;BME280;36190;54.980;73.388;2023-12-20T01:14:42;100688.78;;;-10.08;81.55
50292;BME280;36190;54.980;73.388;2023-12-20T01:17:10;100699.00;;;-10.03;81.71
50292;BME280;36190;54.980;73.388;2023-12-20T01:19:37;100700.72;;;-10.02;81.70
50292;BME280;36190;54.980;73.388;2023-12-20T01:22:05;100694.69;;;-10.01;81.74
50292;BME280;36190;54.980;73.388;2023-12-20T01:24:35;100708.34;;;-9.96;81.96
50292;BME280;36190;54.980;73.388;2023-12-20T01:27:03;100699.81;;;-9.99;81.68
50292;BME280;36190;54.980;73.388;2023-12-20T01:29:32;100706.72;;;-10.00;81.92
50292;BME280;36190;54.980;73.388;2023-12-20T01:32:00;100702.44;;;-10.01;82.22
50292;BME280;36190;54.980;73.388;2023-12-20T01:34:28;100698.97;;;-10.00;82.32
50292;BME280;36190;54.980;73.388;2023-12-20T01:36:55;100706.66;;;-9.97;82.36
50292;BME280;36190;54.980;73.388;2023-12-20T01:39:23;100705.72;;;-9.92;82.73
50292;BME280;36190;54.980;73.388;2023-12-20T01:41:51;100700.50;;;-9.89;82.74
50292;BME280;36190;54.980;73.388;2023-12-20T01:44:18;100709.03;;;-9.87;82.69
50292;BME280;36190;54.980;73.388;2023-12-20T01:46:47;100710.75;;;-9.86;82.70
50292;BME280;36190;54.980;73.388;2023-12-20T01:49:15;100702.97;;;-9.83;82.92
50292;BME280;36190;54.980;73.388;2023-12-20T01:51:43;100704.56;;;-9.77;82.93
50292;BME280;36190;54.980;73.388;2023-12-20T01:54:11;100706.25;;;-9.75;83.10
50292;BME280;36190;54.980;73.388;2023-12-20T01:56:40;100708.66;;;-9.69;82.95
50292;BME280;36190;54.980;73.388;2023-12-20T01:59:08;100712.88;;;-9.63;83.15
50292;BME280;36190;54.980;73.388;2023-12-20T02:01:36;100704.19;;;-9.59;83.04
50292;BME280;36190;54.980;73.388;2023-12-20T02:04:05;100700.72;;;-9.58;82.97
50292;BME280;36190;54.980;73.388;2023-12-20T02:06:34;100711.84;;;-9.54;82.79
50292;BME280;36190;54.980;73.388;2023-12-20T02:09:01;100704.84;;;-9.49;82.90
50292;BME280;36190;54.980;73.388;2023-12-20T02:11:29;100709.00;;;-9.42;82.90
50292;BME280;36190;54.980;73.388;2023-12-20T02:13:57;100703.75;;;-9.39;82.97
50292;BME280;36190;54.980;73.388;2023-12-20T02:16:25;100712.28;;;-9.33;82.89
50292;BME280;36190;54.980;73.388;2023-12-20T02:18:53;100704.53;;;-9.33;82.75
50292;BME280;36190;54.980;73.388;2023-12-20T02:21:31;100706.34;;;-9.39;82.57
50292;BME280;36190;54.980;73.388;2023-12-20T02:23:59;100709.00;;;-9.42;82.61
50292;BME280;36190;54.980;73.388;2023-12-20T02:26:26;100712.44;;;-9.41;82.53
50292;BME280;36190;54.980;73.388;2023-12-20T02:28:55;100704.66;;;-9.41;82.72
50292;BME280;36190;54.980;73.388;2023-12-20T02:31:23;100683.47;;;-9.56;82.45
50292;BME280;36190;54.980;73.388;2023-12-20T02:33:51;100708.00;;;-9.34;82.66
50292;BME280;36190;54.980;73.388;2023-12-20T02:36:18;100707.91;;;-9.30;82.54
50292;BME280;36190;54.980;73.388;2023-12-20T02:38:48;100713.00;;;-9.28;82.66
50292;BME280;36190;54.980;73.388;2023-12-20T02:41:16;100719.03;;;-9.26;82.48
50292;BME280;36190;54.980;73.388;2023-12-20T02:43:45;100717.25;;;-9.24;82.61
50292;BME280;36190;54.980;73.388;2023-12-20T02:46:14;100725.75;;;-9.19;82.65
50292;BME280;36190;54.980;73.388;2023-12-20T02:48:43;100723.97;;;-9.17;82.48
50292;BME280;36190;54.980;73.388;2023-12-20T02:51:10;100722.22;;;-9.16;82.51
50292;BME280;36190;54.980;73.388;2023-12-20T02:53:38;100707.78;;;-9.25;82.62
50292;BME280;36190;54.980;73.388;2023-12-20T02:56:07;100740.97;;;-9.05;82.83
50292;BME280;36190;54.980;73.388;2023-12-20T02:58:38;100735.59;;;-8.97;82.91
50292;BME280;36190;54.980;73.388;2023-12-20T03:01:05;100744.91;;;-8.88;83.03
50292;BME280;36190;54.980;73.388;2023-12-20T03:03:33;100744.66;;;-8.77;83.08
50292;BME280;36190;54.980;73.388;2023-12-20T03:06:01;100741.09;;;-8.73;83.01
50292;BME280;36190;54.980;73.388;2023-12-20T03:08:28;100742.78;;;-8.72;82.87
50292;BME280;36190;54.980;73.388;2023-12-20T03:10:56;100743.56;;;-8.67;83.03
50292;BME280;36190;54.980;73.388;2023-12-20T03:13:25;100747.75;;;-8.63;83.01
50292;BME280;36190;54.980;73.388;2023-12-20T03:15:52;100744.22;;;-8.59;83.09
50292;BME280;36190;54.980;73.388;2023-12-20T03:18:20;100749.31;;;-8.56;83.06
50292;BME280;36190;54.980;73.388;2023-12-20T03:20:48;100749.28;;;-8.54;83.15
50292;BME280;36190;54.980;73.388;2023-12-20T03:23:16;100738.84;;;-8.51;83.14
50292;BME280;36190;54.980;73.388;2023-12-20T03:25:44;100741.28;;;-8.46;83.25
50292;BME280;36190;54.980;73.388;2023-12-20T03:28:14;100730.91;;;-8.45;83.40
50292;BME280;36190;54.980;73.388;2023-12-20T03:30:44;100735.94;;;-8.38;83.25
50292;BME280;36190;54.980;73.388;2023-12-20T03:33:11;100722.34;;;-8.47;83.23
50292;BME280;36190;54.980;73.388;2023-12-20T03:35:39;100741.81;;;-8.32;83.24
50292;BME280;36190;54.980;73.388;2023-12-20T03:38:07;100746.91;;;-8.29;83.32
50292;BME280;36190;54.980;73.388;2023-12-20T03:40:35;100752.00;;;-8.25;83.14
50292;BME280;36190;54.980;73.388;2023-12-20T03:43:02;100747.63;;;-8.23;83.22
50292;BME280;36190;54.980;73.388;2023-12-20T03:45:30;100750.31;;;-8.26;82.92
50292;BME280;36190;54.980;73.388;2023-12-20T03:47:59;100745.22;;;-8.30;83.01
50292;BME280;36190;54.980;73.388;2023-12-20T03:50:27;100760.81;;;-8.33;82.92
50292;BME280;36190;54.980;73.388;2023-12-20T03:52:54;100766.00;;;-8.34;82.97
50292;BME280;36190;54.980;73.388;2023-12-20T03:55:22;100772.84;;;-8.30;83.12
50292;BME280;36190;54.980;73.388;2023-12-20T03:57:50;100773.59;;;-8.25;83.26
50292;BME280;36190;54.980;73.388;2023-12-20T04:00:17;100777.75;;;-8.19;83.22
50292;BME280;36190;54.980;73.388;2023-12-20T04:02:45;100779.31;;;-8.12;83.19
50292;BME280;36190;54.980;73.388;2023-12-20T04:05:14;100792.16;;;-8.09;83.03
50292;BME280;36190;54.980;73.388;2023-12-20T04:07:42;100785.03;;;-8.01;82.84
50292;BME280;36190;54.980;73.388;2023-12-20T04:10:10;100786.56;;;-7.92;82.99
50292;BME280;36190;54.980;73.388;2023-12-20T04:12:37;100788.16;;;-7.88;82.90
50292;BME280;36190;54.980;73.388;2023-12-20T04:15:06;100789.94;;;-7.90;82.61
50292;BME280;36190;54.980;73.388;2023-12-20T04:17:35;100787.47;;;-7.94;82.45
50292;BME280;36190;54.980;73.388;2023-12-20T04:20:03;100786.69;;;-7.96;82.40
50292;BME280;36190;54.980;73.388;2023-12-20T04:22:32;100792.69;;;-7.96;82.58
50292;BME280;36190;54.980;73.388;2023-12-20T04:25:00;100784.00;;;-7.93;82.62
50292;BME280;36190;54.980;73.388;2023-12-20T04:27:28;100787.38;;;-7.91;82.55
50292;BME280;36190;54.980;73.388;2023-12-20T04:29:55;100796.88;;;-7.90;82.39
50292;BME280;36190;54.980;73.388;2023-12-20T04:32:23;100800.31;;;-7.90;82.33
50292;BME280;36190;54.980;73.388;2023-12-20T04:34:51;100796.81;;;-7.87;82.34
50292;BME280;36190;54.980;73.388;2023-12-20T04:37:19;100799.31;;;-7.84;82.51
50292;BME280;36190;54.980;73.388;2023-12-20T04:39:48;100797.50;;;-7.82;82.32
50292;BME280;36190;54.980;73.388;2023-12-20T04:42:16;100799.22;;;-7.81;82.13
50292;BME280;36190;54.980;73.388;2023-12-20T04:44:43;100802.53;;;-7.76;82.20
50292;BME280;36190;54.980;73.388;2023-12-20T04:47:11;100806.69;;;-7.70;82.22
50292;BME280;36190;54.980;73.388;2023-12-20T04:49:38;100812.59;;;-7.63;82.08
50292;BME280;36190;54.980;73.388;2023-12-20T04:52:06;100816.00;;;-7.61;81.85
50292;BME280;36190;54.980;73.388;2023-12-20T04:54:34;100815.88;;;-7.58;81.81
50292;BME280;36190;54.980;73.388;2023-12-20T04:57:03;100813.38;;;-7.60;81.48
50292;BME280;36190;54.980;73.388;2023-12-20T04:59:31;100814.19;;;-7.59;81.42
50292;BME280;36190;54.980;73.388;2023-12-20T05:01:58;100815.88;;;-7.58;81.56
50292;BME280;36190;54.980;73.388;2023-12-20T05:04:26;100822.78;;;-7.57;81.51
50292;BME280;36190;54.980;73.388;2023-12-20T05:06:53;100820.16;;;-7.55;81.22
50292;BME280;36190;54.980;73.388;2023-12-20T05:09:21;100820.06;;;-7.52;81.26
50292;BME280;36190;54.980;73.388;2023-12-20T05:11:49;100824.31;;;-7.50;81.29
50292;BME280;36190;54.980;73.388;2023-12-20T05:14:18;100832.72;;;-7.41;81.32
50292;BME280;36190;54.980;73.388;2023-12-20T05:16:45;100828.25;;;-7.35;81.16
50292;BME280;36190;54.980;73.388;2023-12-20T05:19:13;100828.03;;;-7.27;81.12
50292;BME280;36190;54.980;73.388;2023-12-20T05:21:41;100826.78;;;-7.13;81.24
50292;BME280;36190;54.980;73.388;2023-12-20T05:24:09;100824.72;;;-7.02;81.14
50292;BME280;36190;54.980;73.388;2023-12-20T05:26:36;100827.00;;;-6.91;80.85
50292;BME280;36190;54.980;73.388;2023-12-20T05:29:04;100821.69;;;-6.86;80.53
50292;BME280;36190;54.980;73.388;2023-12-20T05:31:33;100832.69;;;-6.78;80.51
50292;BME280;36190;54.980;73.388;2023-12-20T05:34:00;100829.91;;;-6.72;80.20
50292;BME280;36190;54.980;73.388;2023-12-20T05:36:28;100833.09;;;-6.62;80.16
50292;BME280;36190;54.980;73.388;2023-12-20T05:38:56;100835.56;;;-6.59;79.90
50292;BME280;36190;54.980;73.388;2023-12-20T05:41:23;100831.94;;;-6.53;79.70
50292;BME280;36190;54.980;73.388;2023-12-20T05:43:51;100822.56;;;-6.57;79.42
50292;BME280;36190;54.980;73.388;2023-12-20T05:46:19;100818.44;;;-6.65;79.31
50292;BME280;36190;54.980;73.388;2023-12-20T05:48:56;100820.97;;;-6.63;79.29
50292;BME280;36190;54.980;73.388;2023-12-20T05:51:31;100822.19;;;-6.46;79.55
50292;BME280;36190;54.980;73.388;2023-12-20T05:53:59;100826.72;;;-6.52;79.24
50292;BME280;36190;54.980;73.388;2023-12-20T05:56:27;100823.06;;;-6.46;79.23
50292;BME280;36190;54.980;73.388;2023-12-20T05:58:55;100834.06;;;-6.38;79.05
50292;BME280;36190;54.980;73.388;2023-12-20T06:01:24;100832.09;;;-6.31;79.12
50292;BME280;36190;54.980;73.388;2023-12-20T06:03:54;100833.63;;;-6.24;78.82
50292;BME280;36190;54.980;73.388;2023-12-20T06:06:25;100830.97;;;-6.22;78.78
50292;BME280;36190;54.980;73.388;2023-12-20T06:09:01;100831.81;;;-6.22;78.58
50292;BME280;36190;54.980;73.388;2023-12-20T06:11:30;100830.88;;;-6.19;78.34
50292;BME280;36190;54.980;73.388;2023-12-20T06:13:57;100835.97;;;-6.16;78.30
50292;BME280;36190;54.980;73.388;2023-12-20T06:16:25;100841.69;;;-6.06;78.19
50292;BME280;36190;54.980;73.388;2023-12-20T06:18:54;100846.81;;;-6.03;78.18
50292;BME280;36190;54.980;73.388;2023-12-20T06:21:22;100837.25;;;-6.02;77.86
50292;BME280;36190;54.980;73.388;2023-12-20T06:23:50;100840.66;;;-6.00;77.81
50292;BME280;36190;54.980;73.388;2023-12-20T06:26:17;100839.66;;;-5.98;77.62
50292;BME280;36190;54.980;73.388;2023-12-20T06:28:45;100831.09;;;-6.00;77.69
50292;BME280;36190;54.980;73.388;2023-12-20T06:31:13;100842.81;;;-5.88;77.61
50292;BME280;36190;54.980;73.388;2023-12-20T06:33:40;100848.59;;;-5.80;77.51
50292;BME280;36190;54.980;73.388;2023-12-20T06:36:11;100846.22;;;-5.86;77.47
50292;BME280;36190;54.980;73.388;2023-12-20T06:38:39;100849.50;;;-5.81;77.21
50292;BME280;36190;54.980;73.388;2023-12-20T06:41:08;100848.59;;;-5.80;77.12
50292;BME280;36190;54.980;73.388;2023-12-20T06:43:35;100851.97;;;-5.76;77.18
50292;BME280;36190;54.980;73.388;2023-12-20T06:46:03;100844.03;;;-5.73;77.01
50292;BME280;36190;54.980;73.388;2023-12-20T06:48:31;100845.69;;;-5.70;76.93
50292;BME280;36190;54.980;73.388;2023-12-20T06:50:59;100852.31;;;-5.60;76.88
50292;BME280;36190;54.980;73.388;2023-12-20T06:53:29;100859.09;;;-5.56;76.72
50292;BME280;36190;54.980;73.388;2023-12-20T06:55:57;100858.13;;;-5.53;76.69
50292;BME280;36190;54.980;73.388;2023-12-20T06:58:24;100858.16;;;-5.55;76.57
50292;BME280;36190;54.980;73.388;2023-12-20T07:00:52;100858.16;;;-5.55;76.30
50292;BME280;36190;54.980;73.388;2023-12-20T07:03:20;100855.25;;;-5.45;76.49
50292;BME280;36190;54.980;73.388;2023-12-20T07:05:48;100853.97;;;-5.33;76.49
50292;BME280;36190;54.980;73.388;2023-12-20T07:08:15;100863.16;;;-5.23;76.22
50292;BME280;36190;54.980;73.388;2023-12-20T07:10:44;100864.78;;;-5.20;76.08
50292;BME280;36190;54.980;73.388;2023-12-20T07:13:12;100868.38;;;-5.23;75.81
50292;BME280;36190;54.980;73.388;2023-12-20T07:15:40;100867.47;;;-5.22;75.80
50292;BME280;36190;54.980;73.388;2023-12-20T07:18:08;100863.41;;;-5.31;75.56
50292;BME280;36190;54.980;73.388;2023-12-20T07:20:34;100865.72;;;-5.47;75.44
50292;BME280;36190;54.980;73.388;2023-12-20T07:23:02;100874.63;;;-5.54;75.46
50292;BME280;36190;54.980;73.388;2023-12-20T07:25:29;100882.28;;;-5.49;75.75
50292;BME280;36190;54.980;73.388;2023-12-20T07:27:59;100875.38;;;-5.50;75.69
50292;BME280;36190;54.980;73.388;2023-12-20T07:30:27;100875.47;;;-5.54;75.71
50292;BME280;36190;54.980;73.388;2023-12-20T07:32:55;100882.59;;;-5.59;75.54
50292;BME280;36190;54.980;73.388;2023-12-20T07:35:23;100883.63;;;-5.64;75.69
50292;BME280;36190;54.980;73.388;2023-12-20T07:37:51;100882.53;;;-5.57;75.80
50292;BME280;36190;54.980;73.388;2023-12-20T07:40:18;100883.97;;;-5.48;75.93
50292;BME280;36190;54.980;73.388;2023-12-20T07:42:46;100887.16;;;-5.40;75.79
50292;BME280;36190;54.980;73.388;2023-12-20T07:45:15;100885.34;;;-5.38;75.59
50292;BME280;36190;54.980;73.388;2023-12-20T07:47:43;100872.34;;;-5.38;75.56
50292;BME280;36190;54.980;73.388;2023-12-20T07:50:10;100884.44;;;-5.37;75.40
50292;BME280;36190;54.980;73.388;2023-12-20T07:52:38;100880.84;;;-5.33;75.19
50292;BME280;36190;54.980;73.388;2023-12-20T07:55:07;100877.06;;;-5.24;75.35
50292;BME280;36190;54.980;73.388;2023-12-20T07:57:34;100869.09;;;-5.19;75.21
50292;BME280;36190;54.980;73.388;2023-12-20T08:00:03;100871.59;;;-5.16;75.14
50292;BME280;36190;54.980;73.388;2023-12-20T08:02:32;100876.59;;;-5.10;75.08
50292;BME280;36190;54.980;73.388;2023-12-20T08:05:00;100878.31;;;-5.11;74.87
50292;BME280;36190;54.980;73.388;2023-12-20T08:07:28;100881.84;;;-5.12;74.93
50292;BME280;36190;54.980;73.388;2023-12-20T08:09:55;100882.91;;;-5.17;74.93
50292;BME280;36190;54.980;73.388;2023-12-20T08:12:23;100881.38;;;-5.23;74.95
50292;BME280;36190;54.980;73.388;2023-12-20T08:14:53;100882.53;;;-5.32;74.88
50292;BME280;36190;54.980;73.388;2023-12-20T08:17:21;100888.84;;;-5.39;74.92
50292;BME280;36190;54.980;73.388;2023-12-20T08:19:51;100890.88;;;-5.47;75.16
50292;BME280;36190;54.980;73.388;2023-12-20T08:22:19;100887.63;;;-5.54;75.09
50292;BME280;36190;54.980;73.388;2023-12-20T08:24:46;100887.72;;;-5.57;75.21
50292;BME280;36190;54.980;73.388;2023-12-20T08:27:14;100892.03;;;-5.56;75.59
50292;BME280;36190;54.980;73.388;2023-12-20T08:29:43;100886.81;;;-5.56;75.48
50292;BME280;36190;54.980;73.388;2023-12-20T08:32:11;100889.38;;;-5.55;75.63
50292;BME280;36190;54.980;73.388;2023-12-20T08:34:39;100890.16;;;-5.53;75.46
50292;BME280;36190;54.980;73.388;2023-12-20T08:37:08;100891.91;;;-5.52;75.42
50292;BME280;36190;54.980;73.388;2023-12-20T08:39:35;100901.38;;;-5.50;75.37
50292;BME280;36190;54.980;73.388;2023-12-20T08:42:04;100897.97;;;-5.53;75.31
50292;BME280;36190;54.980;73.388;2023-12-20T08:44:31;100896.50;;;-5.60;75.21
50292;BME280;36190;54.980;73.388;2023-12-20T08:46:59;100891.50;;;-5.66;75.26
50292;BME280;36190;54.980;73.388;2023-12-20T08:49:27;100890.84;;;-5.73;75.40
50292;BME280;36190;54.980;73.388;2023-12-20T08:51:54;100884.88;;;-5.76;75.36
50292;BME280;36190;54.980;73.388;2023-12-20T08:54:24;100890.19;;;-5.80;75.56
50292;BME280;36190;54.980;73.388;2023-12-20T08:56:51;100893.59;;;-5.77;75.51
50292;BME280;36190;54.980;73.388;2023-12-20T08:59:19;100895.22;;;-5.73;75.70
50292;BME280;36190;54.980;73.388;2023-12-20T09:01:47;100903.59;;;-5.65;75.83
50292;BME280;36190;54.980;73.388;2023-12-20T09:04:20;100911.94;;;-5.55;75.96
50292;BME280;36190;54.980;73.388;2023-12-20T09:06:47;100916.13;;;-5.51;75.52
50292;BME280;36190;54.980;73.388;2023-12-20T09:09:15;100913.56;;;-5.53;75.71
50292;BME280;36190;54.980;73.388;2023-12-20T09:11:44;100919.59;;;-5.50;75.46
50292;BME280;36190;54.980;73.388;2023-12-20T09:14:13;100916.00;;;-5.48;75.52
50292;BME280;36190;54.980;73.388;2023-12-20T09:16:40;100913.28;;;-5.43;75.64
50292;BME280;36190;54.980;73.388;2023-12-20T09:19:08;100908.97;;;-5.44;75.66
50292;BME280;36190;54.980;73.388;2023-12-20T09:21:36;100908.28;;;-5.49;75.32
50292;BME280;36190;54.980;73.388;2023-12-20T09:24:04;100914.47;;;-5.54;75.63
50292;BME280;36190;54.980;73.388;2023-12-20T09:26:31;100908.69;;;-5.62;75.53
50292;BME280;36190;54.980;73.388;2023-12-20T09:29:01;100914.31;;;-5.74;75.61
50292;BME280;36190;54.980;73.388;2023-12-20T09:31:28;100917.06;;;-5.79;75.66
50292;BME280;36190;54.980;73.388;2023-12-20T09:33:56;100923.38;;;-5.88;75.69
50292;BME280;36190;54.980;73.388;2023-12-20T09:36:24;100919.56;;;-6.03;75.70
50292;BME280;36190;54.980;73.388;2023-12-20T09:38:51;100930.19;;;-6.11;76.04
50292;BME280;36190;54.980;73.388;2023-12-20T09:41:20;100915.50;;;-6.12;76.35
50292;BME280;36190;54.980;73.388;2023-12-20T09:43:49;100929.44;;;-6.14;76.62
50292;BME280;36190;54.980;73.388;2023-12-20T09:46:24;100927.81;;;-6.17;76.32
50292;BME280;36190;54.980;73.388;2023-12-20T09:48:55;100921.09;;;-6.24;76.47
50292;BME280;36190;54.980;73.388;2023-12-20T09:51:24;100933.47;;;-6.32;76.58
50292;BME280;36190;54.980;73.388;2023-12-20T09:53:54;100919.91;;;-6.42;76.94
50292;BME280;36190;54.980;73.388;2023-12-20T09:56:25;100923.44;;;-6.45;76.86
50292;BME280;36190;54.980;73.388;2023-12-20T09:58:52;100906.44;;;-6.55;77.16
50292;BME280;36190;54.980;73.388;2023-12-20T10:01:22;100927.72;;;-6.44;77.30
50292;BME280;36190;54.980;73.388;2023-12-20T10:03:51;100925.00;;;-6.39;77.32
50292;BME280;36190;54.980;73.388;2023-12-20T10:06:22;100932.63;;;-6.35;77.45
50292;BME280;36190;54.980;73.388;2023-12-20T10:08:50;100937.03;;;-6.37;77.49
50292;BME280;36190;54.980;73.388;2023-12-20T10:11:17;100935.34;;;-6.38;77.37
50292;BME280;36190;54.980;73.388;2023-12-20T10:13:47;100916.72;;;-6.52;77.25
50292;BME280;36190;54.980;73.388;2023-12-20T10:16:15;100937.31;;;-6.46;77.26
50292;BME280;36190;54.980;73.388;2023-12-20T10:18:45;100930.69;;;-6.56;77.31
50292;BME280;36190;54.980;73.388;2023-12-20T10:21:13;100935.94;;;-6.58;77.53
50292;BME280;36190;54.980;73.388;2023-12-20T10:23:41;100934.31;;;-6.62;77.66
50292;BME280;36190;54.980;73.388;2023-12-20T10:26:08;100942.31;;;-6.70;77.81
50292;BME280;36190;54.980;73.388;2023-12-20T10:28:38;100942.47;;;-6.76;77.93
50292;BME280;36190;54.980;73.388;2023-12-20T10:31:05;100943.47;;;-6.80;77.94
50292;BME280;36190;54.980;73.388;2023-12-20T10:33:33;100951.19;;;-6.79;78.34
50292;BME280;36190;54.980;73.388;2023-12-20T10:36:03;100946.84;;;-6.77;78.44
50292;BME280;36190;54.980;73.388;2023-12-20T10:38:31;100954.44;;;-6.70;78.48
50292;BME280;36190;54.980;73.388;2023-12-20T10:40:58;100953.34;;;-6.61;78.80
50292;BME280;36190;54.980;73.388;2023-12-20T10:43:27;100952.38;;;-6.57;78.51
50292;BME280;36190;54.980;73.388;2023-12-20T10:45:56;100958.34;;;-6.55;78.39
50292;BME280;36190;54.980;73.388;2023-12-20T10:48:25;100959.16;;;-6.53;78.29
50292;BME280;36190;54.980;73.388;2023-12-20T10:50:56;100957.56;;;-6.57;78.44
50292;BME280;36190;54.980;73.388;2023-12-20T10:53:25;100961.16;;;-6.63;78.00
50292;BME280;36190;54.980;73.388;2023-12-20T10:55:55;100951.03;;;-6.72;78.13
50292;BME280;36190;54.980;73.388;2023-12-20T10:58:24;100957.16;;;-6.75;78.31
50292;BME280;36190;54.980;73.388;2023-12-20T11:00:59;100957.38;;;-6.83;78.26
50292;BME280;36190;54.980;73.388;2023-12-20T11:03:27;100953.28;;;-6.92;78.31
50292;BME280;36190;54.980;73.388;2023-12-20T11:06:03;100954.34;;;-6.99;78.49
50292;BME280;36190;54.980;73.388;2023-12-20T11:08:38;100959.78;;;-7.08;78.64
50292;BME280;36190;54.980;73.388;2023-12-20T11:11:07;100961.47;;;-7.07;78.81
50292;BME280;36190;54.980;73.388;2023-12-20T11:13:43;100965.16;;;-7.14;78.75
50292;BME280;36190;54.980;73.388;2023-12-20T11:16:15;100965.16;;;-7.14;78.86
50292;BME280;36190;54.980;73.388;2023-12-20T11:18:45;100959.19;;;-7.18;78.95
50292;BME280;36190;54.980;73.388;2023-12-20T11:21:12;100964.25;;;-7.13;79.18
50292;BME280;36190;54.980;73.388;2023-12-20T11:23:42;100969.38;;;-7.12;79.10
50292;BME280;36190;54.980;73.388;2023-12-20T11:26:10;100967.63;;;-7.10;79.29
50292;BME280;36190;54.980;73.388;2023-12-20T11:28:38;100986.44;;;-7.01;79.34
50292;BME280;36190;54.980;73.388;2023-12-20T11:31:05;100981.91;;;-6.95;79.51
50292;BME280;36190;54.980;73.388;2023-12-20T11:33:37;100974.22;;;-6.98;79.25
50292;BME280;36190;54.980;73.388;2023-12-20T11:36:14;100968.44;;;-7.08;78.89
50292;BME280;36190;54.980;73.388;2023-12-20T11:38:54;100955.84;;;-7.23;79.14
50292;BME280;36190;54.980;73.388;2023-12-20T11:41:23;100967.91;;;-7.21;79.31
50292;BME280;36190;54.980;73.388;2023-12-20T11:43:53;100971.50;;;-7.26;79.13
50292;BME280;36190;54.980;73.388;2023-12-20T11:46:22;100965.59;;;-7.33;79.05
50292;BME280;36190;54.980;73.388;2023-12-20T11:48:50;100964.00;;;-7.37;79.41
50292;BME280;36190;54.980;73.388;2023-12-20T11:51:18;100958.88;;;-7.40;79.54
50292;BME280;36190;54.980;73.388;2023-12-20T11:53:53;100958.84;;;-7.39;79.44
50292;BME280;36190;54.980;73.388;2023-12-20T11:56:20;100961.34;;;-7.36;79.79
50292;BME280;36190;54.980;73.388;2023-12-20T11:58:49;100965.69;;;-7.36;79.82
50292;BME280;36190;54.980;73.388;2023-12-20T12:01:17;100970.88;;;-7.36;79.81
50292;BME280;36190;54.980;73.388;2023-12-20T12:03:46;100983.81;;;-7.35;79.59
50292;BME280;36190;54.980;73.388;2023-12-20T12:06:14;100991.59;;;-7.35;79.86
50292;BME280;36190;54.980;73.388;2023-12-20T12:08:45;100986.34;;;-7.33;79.75
50292;BME280;36190;54.980;73.388;2023-12-20T12:11:14;100996.81;;;-7.36;79.69
50292;BME280;36190;54.980;73.388;2023-12-20T12:13:41;100965.19;;;-7.51;79.50
50292;BME280;36190;54.980;73.388;2023-12-20T12:16:10;100972.03;;;-7.48;79.59
50292;BME280;36190;54.980;73.388;2023-12-20T12:18:38;100974.50;;;-7.43;79.96
50292;BME280;36190;54.980;73.388;2023-12-20T12:21:07;100965.72;;;-7.38;80.00
50292;BME280;36190;54.980;73.388;2023-12-20T12:23:35;100963.91;;;-7.34;80.02
50292;BME280;36190;54.980;73.388;2023-12-20T12:26:04;100969.91;;;-7.32;80.09
50292;BME280;36190;54.980;73.388;2023-12-20T12:28:34;100962.31;;;-7.38;80.00
50292;BME280;36190;54.980;73.388;2023-12-20T12:31:02;100970.56;;;-7.24;80.20
50292;BME280;36190;54.980;73.388;2023-12-20T12:33:30;100972.19;;;-7.20;80.18
50292;BME280;36190;54.980;73.388;2023-12-20T12:35:58;100969.56;;;-7.18;80.08
50292;BME280;36190;54.980;73.388;2023-12-20T12:38:25;100971.19;;;-7.14;80.09
50292;BME280;36190;54.980;73.388;2023-12-20T12:40:54;100980.72;;;-7.14;80.04
50292;BME280;36190;54.980;73.388;2023-12-20T12:43:22;100977.22;;;-7.13;80.08